createdAt,value
2022-11-29T00:01:22.160Z,20.48
2022-11-29T00:03:48.612Z,18.80
2022-11-29T00:06:18.172Z,17.83
2022-11-29T00:08:45.264Z,16.98
2022-11-29T00:11:36.378Z,18.02
2022-11-29T00:14:02.768Z,17.65
2022-11-29T00:16:29.294Z,21.65
2022-11-29T00:18:55.906Z,18.63
2022-11-29T00:21:22.371Z,21.70
2022-11-29T00:23:48.811Z,16.63
2022-11-29T00:26:15.226Z,20.65
2022-11-29T00:28:41.743Z,22.35
2022-11-29T00:31:20.729Z,21.17
2022-11-29T00:33:47.503Z,18.60
2022-11-29T00:36:14.393Z,22.48
2022-11-29T00:38:41.674Z,18.50
2022-11-29T00:41:08.799Z,17.25
2022-11-29T00:43:35.288Z,19.60
2022-11-29T00:46:04.339Z,20.17
2022-11-29T00:48:31.128Z,17.45
2022-11-29T00:50:57.952Z,18.63
2022-11-29T00:53:24.623Z,19.38
2022-11-29T00:55:54.670Z,19.40
2022-11-29T00:58:22.438Z,21.73
2022-11-29T01:00:49.374Z,20.55
2022-11-29T01:03:17.122Z,20.50
2022-11-29T01:05:44.419Z,20.08
2022-11-29T01:08:13.770Z,22.60
2022-11-29T01:10:40.798Z,20.80
2022-11-29T01:13:08.297Z,20.65
2022-11-29T01:15:35.017Z,18.25
2022-11-29T01:18:01.476Z,30.13
2022-11-29T01:20:28.225Z,20.33
2022-11-29T01:22:54.635Z,17.45
2022-11-29T01:25:24.315Z,19.40
2022-11-29T01:27:50.855Z,17.63
2022-11-29T01:30:17.502Z,18.55
2022-11-29T01:32:44.051Z,19.63
2022-11-29T01:35:10.533Z,22.58
2022-11-29T01:37:36.992Z,19.98
2022-11-29T01:40:04.045Z,17.77
2022-11-29T01:42:30.414Z,19.90
2022-11-29T01:45:04.692Z,27.70
2022-11-29T01:47:32.356Z,21.13
2022-11-29T01:49:59.855Z,19.50
2022-11-29T01:52:31.097Z,27.20
2022-11-29T01:55:02.986Z,18.38
2022-11-29T01:57:31.454Z,24.47
2022-11-29T02:00:04.059Z,18.08
2022-11-29T02:02:35.409Z,22.55
2022-11-29T02:05:03.590Z,20.38
2022-11-29T02:07:30.223Z,21.92
2022-11-29T02:09:56.663Z,30.20
2022-11-29T02:12:36.609Z,24.92
2022-11-29T02:15:18.363Z,21.75
2022-11-29T02:17:57.887Z,19.88
2022-11-29T02:21:01.274Z,21.70
2022-11-29T02:23:51.228Z,20.07
2022-11-29T02:26:29.682Z,21.65
2022-11-29T02:28:58.952Z,20.13
2022-11-29T02:32:01.054Z,21.02
2022-11-29T02:34:42.001Z,19.95
2022-11-29T02:37:41.697Z,20.53
2022-11-29T02:40:31.626Z,21.40
2022-11-29T02:43:31.150Z,26.50
2022-11-29T02:46:25.169Z,18.00
2022-11-29T02:49:34.620Z,21.38
2022-11-29T02:52:26.093Z,17.27
2022-11-29T02:55:02.805Z,19.83
2022-11-29T02:57:40.712Z,22.90
2022-11-29T03:00:15.697Z,18.35
2022-11-29T03:02:53.308Z,19.13
2022-11-29T03:05:37.595Z,15.97
2022-11-29T03:08:22.371Z,16.23
2022-11-29T03:11:30.875Z,17.52
2022-11-29T03:14:06.323Z,24.70
2022-11-29T03:17:00.931Z,18.38
2022-11-29T03:20:01.244Z,18.13
2022-11-29T03:22:42.321Z,19.88
2022-11-29T03:25:18.238Z,15.88
2022-11-29T03:28:00.593Z,15.98
2022-11-29T03:30:29.486Z,14.75
2022-11-29T03:33:05.043Z,20.90
2022-11-29T03:35:55.639Z,14.95
2022-11-29T03:38:35.075Z,17.20
2022-11-29T03:41:27.591Z,15.25
2022-11-29T03:44:18.002Z,17.80
2022-11-29T03:46:54.248Z,14.47
2022-11-29T03:49:35.537Z,14.82
2022-11-29T03:52:32.163Z,18.25
2022-11-29T03:55:33.018Z,18.30
2022-11-29T03:58:33.295Z,15.65
2022-11-29T04:01:21.676Z,14.07
2022-11-29T04:04:24.698Z,17.30
2022-11-29T04:07:31.229Z,18.15
2022-11-29T04:10:16.133Z,15.13
2022-11-29T04:12:48.733Z,20.88
2022-11-29T04:15:38.226Z,13.80
2022-11-29T04:18:41.225Z,16.95
2022-11-29T04:21:40.878Z,15.90
2022-11-29T04:24:39.188Z,15.25
2022-11-29T04:27:18.211Z,13.32
2022-11-29T04:29:50.661Z,14.33
2022-11-29T04:32:29.130Z,15.48
2022-11-29T04:35:14.765Z,14.57
2022-11-29T04:38:14.474Z,13.15
2022-11-29T04:41:19.824Z,11.13
2022-11-29T04:44:05.736Z,11.87
2022-11-29T04:46:47.581Z,14.57
2022-11-29T04:49:34.013Z,10.82
2022-11-29T04:52:40.998Z,14.68
2022-11-29T04:55:41.605Z,14.27
2022-11-29T04:58:21.571Z,12.80
2022-11-29T05:01:03.968Z,11.77
2022-11-29T05:03:46.905Z,13.35
2022-11-29T05:06:23.464Z,12.88
2022-11-29T05:09:03.211Z,11.73
2022-11-29T05:11:41.132Z,13.40
2022-11-29T05:14:24.356Z,12.82
2022-11-29T05:17:23.237Z,12.68
2022-11-29T05:20:36.465Z,15.73
2022-11-29T05:23:18.947Z,12.00
2022-11-29T05:25:48.413Z,11.70
2022-11-29T05:28:25.486Z,12.13
2022-11-29T05:31:24.065Z,10.75
2022-11-29T05:34:19.386Z,9.45
2022-11-29T05:37:02.489Z,13.18
2022-11-29T05:39:50.683Z,14.00
2022-11-29T05:42:34.688Z,11.85
2022-11-29T05:45:10.519Z,11.07
2022-11-29T05:48:17.154Z,10.75
2022-11-29T05:50:52.703Z,11.05
2022-11-29T05:53:30.074Z,10.60
2022-11-29T05:56:09.808Z,10.90
2022-11-29T05:58:58.325Z,10.55
2022-11-29T06:01:38.412Z,11.00
2022-11-29T06:04:17.788Z,10.35
2022-11-29T06:07:08.204Z,8.63
2022-11-29T06:10:01.659Z,10.20
2022-11-29T06:12:31.945Z,9.45
2022-11-29T06:15:29.145Z,9.10
2022-11-29T06:18:32.134Z,10.95
2022-11-29T06:21:10.984Z,9.47
2022-11-29T06:23:50.812Z,9.98
2022-11-29T06:26:39.324Z,9.05
2022-11-29T06:29:25.506Z,10.43
2022-11-29T06:32:20.894Z,9.32
2022-11-29T06:35:03.662Z,8.50
2022-11-29T06:37:33.717Z,9.88
2022-11-29T06:40:00.792Z,9.80
2022-11-29T06:42:27.380Z,11.68
2022-11-29T06:44:54.162Z,10.90
2022-11-29T06:47:39.722Z,10.37
2022-11-29T06:50:06.803Z,9.82
2022-11-29T06:52:44.577Z,10.13
2022-11-29T06:55:11.015Z,11.05
2022-11-29T06:57:51.622Z,11.00
2022-11-29T07:00:26.963Z,12.10
2022-11-29T07:03:19.513Z,10.40
2022-11-29T07:05:46.913Z,10.82
2022-11-29T07:08:17.096Z,14.30
2022-11-29T07:10:45.575Z,17.88
2022-11-29T07:13:15.882Z,14.73
2022-11-29T07:15:53.767Z,15.15
2022-11-29T07:18:39.114Z,14.20
2022-11-29T07:21:11.322Z,15.40
2022-11-29T07:24:04.863Z,15.75
2022-11-29T07:26:35.491Z,15.60
2022-11-29T07:29:26.368Z,13.70
2022-11-29T07:32:22.389Z,11.23
2022-11-29T07:35:04.010Z,13.90
2022-11-29T07:37:39.652Z,12.38
2022-11-29T07:40:14.446Z,11.00
2022-11-29T07:43:05.220Z,12.85
2022-11-29T07:45:36.732Z,11.80
2022-11-29T07:48:03.836Z,14.27
2022-11-29T07:50:31.232Z,10.02
2022-11-29T07:53:00.812Z,10.67
2022-11-29T07:55:27.521Z,10.30
2022-11-29T07:57:56.862Z,10.23
2022-11-29T08:00:23.397Z,11.43
2022-11-29T08:02:50.803Z,9.50
2022-11-29T08:05:17.873Z,8.23
2022-11-29T08:07:44.413Z,10.93
2022-11-29T08:10:38.183Z,13.15
2022-11-29T08:13:04.731Z,9.65
2022-11-29T08:15:31.229Z,9.10
2022-11-29T08:18:02.364Z,8.80
2022-11-29T08:20:28.822Z,10.27
2022-11-29T08:22:58.247Z,10.77
2022-11-29T08:25:25.837Z,10.73
2022-11-29T08:27:52.398Z,9.40
2022-11-29T08:30:22.247Z,9.10
2022-11-29T08:32:51.677Z,8.05
2022-11-29T08:35:20.061Z,8.25
2022-11-29T08:37:46.650Z,10.60
2022-11-29T08:40:14.183Z,7.78
2022-11-29T08:42:41.734Z,9.73
2022-11-29T08:45:09.650Z,7.97
2022-11-29T08:47:37.047Z,7.93
2022-11-29T08:50:08.249Z,8.23
2022-11-29T08:52:55.693Z,8.27
2022-11-29T08:55:26.404Z,7.03
2022-11-29T08:57:54.147Z,6.70
2022-11-29T09:00:21.321Z,8.95
2022-11-29T09:02:48.467Z,6.95
2022-11-29T09:05:15.815Z,6.93
2022-11-29T09:07:42.880Z,6.27
2022-11-29T09:10:11.213Z,8.38
2022-11-29T09:12:39.583Z,6.53
2022-11-29T09:15:10.715Z,9.70
2022-11-29T09:17:37.520Z,6.68
2022-11-29T09:20:05.377Z,7.47
2022-11-29T09:22:31.817Z,9.70
2022-11-29T09:24:58.249Z,6.30
2022-11-29T09:27:24.623Z,7.50
2022-11-29T09:29:51.113Z,7.25
2022-11-29T09:32:17.704Z,7.10
2022-11-29T09:34:44.451Z,7.40
2022-11-29T09:37:10.999Z,6.88
2022-11-29T09:39:38.126Z,6.88
2022-11-29T09:42:19.773Z,7.35
2022-11-29T09:45:14.507Z,6.93
2022-11-29T09:48:07.860Z,7.60
2022-11-29T09:51:17.467Z,7.82
2022-11-29T09:53:58.472Z,5.75
2022-11-29T09:56:36.930Z,5.07
2022-11-29T09:59:09.770Z,6.20
2022-11-29T10:01:45.117Z,7.60
2022-11-29T10:04:18.200Z,5.55
2022-11-29T10:07:21.485Z,5.45
2022-11-29T10:09:53.435Z,5.50
2022-11-29T10:13:02.838Z,7.73
2022-11-29T10:15:34.238Z,6.25
2022-11-29T10:18:16.854Z,4.57
2022-11-29T10:20:49.169Z,9.18
2022-11-29T10:23:32.956Z,4.75
2022-11-29T10:25:59.768Z,5.63
2022-11-29T10:28:31.085Z,6.78
2022-11-29T10:31:12.795Z,5.22
2022-11-29T10:33:41.067Z,4.45
2022-11-29T10:36:18.676Z,5.90
2022-11-29T10:38:47.725Z,5.20
2022-11-29T10:41:21.844Z,5.07
2022-11-29T10:43:53.768Z,4.05
2022-11-29T10:46:31.300Z,5.55
2022-11-29T10:49:01.195Z,5.80
2022-11-29T10:51:28.917Z,4.73
2022-11-29T10:53:58.533Z,4.50
2022-11-29T10:56:30.070Z,6.82
2022-11-29T10:59:03.328Z,4.57
2022-11-29T11:01:42.210Z,4.55
2022-11-29T11:04:15.496Z,6.43
2022-11-29T11:06:56.938Z,4.57
2022-11-29T11:09:37.127Z,6.00
2022-11-29T11:12:17.694Z,5.20
2022-11-29T11:14:45.217Z,6.40
2022-11-29T11:17:26.125Z,5.07
2022-11-29T11:20:02.002Z,6.88
2022-11-29T11:22:29.558Z,4.22
2022-11-29T11:25:00.255Z,4.20
2022-11-29T11:27:35.975Z,4.35
2022-11-29T11:30:05.347Z,4.20
2022-11-29T11:32:31.960Z,4.15
2022-11-29T11:35:01.257Z,4.43
2022-11-29T11:37:30.681Z,4.53
2022-11-29T11:40:00.871Z,6.60
2022-11-29T11:42:39.556Z,3.73
2022-11-29T11:45:12.575Z,4.28
2022-11-29T11:47:47.199Z,5.15
2022-11-29T11:50:27.770Z,6.45
2022-11-29T11:53:05.985Z,3.40
2022-11-29T11:55:40.634Z,3.43
2022-11-29T11:58:17.091Z,9.50
2022-11-29T12:01:04.803Z,4.60
2022-11-29T12:03:48.462Z,4.95
2022-11-29T12:06:36.564Z,11.35
2022-11-29T12:09:09.044Z,5.00
2022-11-29T12:12:10.643Z,5.97
2022-11-29T12:15:06.687Z,7.30
2022-11-29T12:17:50.584Z,6.15
2022-11-29T12:20:17.024Z,3.72
2022-11-29T12:23:12.634Z,6.60
2022-11-29T12:26:00.371Z,7.28
2022-11-29T12:28:32.189Z,5.07
2022-11-29T12:31:16.938Z,3.83
2022-11-29T12:33:46.482Z,6.35
2022-11-29T12:36:38.183Z,4.70
2022-11-29T12:39:42.525Z,7.40
2022-11-29T12:42:21.176Z,5.45
2022-11-29T12:44:58.630Z,4.28
2022-11-29T12:47:52.025Z,3.95
2022-11-29T12:50:37.683Z,5.70
2022-11-29T12:53:41.041Z,8.18
2022-11-29T12:56:16.558Z,7.15
2022-11-29T12:59:13.534Z,4.22
2022-11-29T13:02:04.985Z,7.38
2022-11-29T13:05:01.035Z,8.07
2022-11-29T13:07:51.943Z,7.75
2022-11-29T13:10:32.640Z,7.43
2022-11-29T13:13:19.673Z,9.75
2022-11-29T13:16:04.927Z,10.38
2022-11-29T13:18:37.530Z,11.33
2022-11-29T13:21:15.185Z,8.75
2022-11-29T13:24:12.171Z,14.02
2022-11-29T13:26:40.459Z,8.68
2022-11-29T13:29:11.551Z,11.15
2022-11-29T13:31:39.147Z,11.20
2022-11-29T13:34:38.955Z,10.30
2022-11-29T13:37:28.646Z,11.82
2022-11-29T13:40:07.517Z,9.27
2022-11-29T13:42:41.383Z,9.40
2022-11-29T13:45:31.826Z,10.47
2022-11-29T13:48:00.262Z,11.10
2022-11-29T13:50:42.380Z,8.82
2022-11-29T13:53:18.256Z,8.82
2022-11-29T13:56:00.221Z,7.43
2022-11-29T13:58:42.195Z,10.13
2022-11-29T14:01:11.331Z,10.23
2022-11-29T14:03:42.620Z,8.10
2022-11-29T14:06:13.738Z,8.43
2022-11-29T14:09:22.343Z,6.72
2022-11-29T14:12:00.543Z,9.27
2022-11-29T14:14:51.456Z,12.40
2022-11-29T14:17:43.079Z,8.32
2022-11-29T14:20:30.649Z,9.75
2022-11-29T14:23:08.019Z,8.73
2022-11-29T14:25:51.272Z,10.93
2022-11-29T14:28:18.247Z,8.27
2022-11-29T14:30:44.608Z,6.68
2022-11-29T14:33:32.713Z,9.80
2022-11-29T14:36:14.324Z,5.97
2022-11-29T14:39:23.108Z,11.63
2022-11-29T14:42:01.801Z,7.32
2022-11-29T14:44:30.686Z,7.25
2022-11-29T14:47:04.021Z,7.50
2022-11-29T14:49:44.875Z,6.25
2022-11-29T14:52:14.394Z,8.97
2022-11-29T14:54:58.807Z,5.30
2022-11-29T14:57:54.752Z,5.97
2022-11-29T15:00:25.575Z,7.20
2022-11-29T15:03:00.122Z,6.40
2022-11-29T15:05:34.834Z,6.43
2022-11-29T15:08:13.186Z,8.40
2022-11-29T15:10:43.743Z,6.60
2022-11-29T15:13:21.814Z,8.18
2022-11-29T15:16:21.512Z,8.27
2022-11-29T15:19:24.301Z,5.13
2022-11-29T15:22:15.799Z,7.40
2022-11-29T15:24:51.588Z,6.53
2022-11-29T15:27:18.283Z,5.18
2022-11-29T15:29:50.488Z,7.22
2022-11-29T15:32:32.658Z,4.27
2022-11-29T15:34:59.350Z,5.13
2022-11-29T15:37:36.483Z,5.40
2022-11-29T15:40:11.992Z,4.55
2022-11-29T15:42:40.931Z,4.85
2022-11-29T15:45:25.921Z,7.67
2022-11-29T15:47:53.271Z,5.32
2022-11-29T15:50:29.262Z,5.05
2022-11-29T15:53:03.509Z,7.88
2022-11-29T15:55:30.695Z,6.07
2022-11-29T15:58:01.581Z,5.90
2022-11-29T16:00:35.783Z,8.25
2022-11-29T16:03:04.299Z,6.55
2022-11-29T16:05:37.795Z,6.05
2022-11-29T16:08:08.269Z,9.27
2022-11-29T16:10:40.182Z,5.77
2022-11-29T16:13:23.974Z,7.65
2022-11-29T16:16:04.682Z,7.60
2022-11-29T16:18:34.880Z,7.40
2022-11-29T16:21:03.482Z,7.80
2022-11-29T16:23:48.032Z,6.97
2022-11-29T16:26:26.510Z,8.48
2022-11-29T16:29:00.286Z,7.78
2022-11-29T16:31:35.328Z,6.97
2022-11-29T16:34:15.468Z,10.60
2022-11-29T16:36:41.991Z,7.87
2022-11-29T16:39:23.073Z,8.63
2022-11-29T16:42:07.618Z,6.78
2022-11-29T16:44:39.986Z,10.23
2022-11-29T16:47:20.951Z,11.65
2022-11-29T16:50:02.341Z,6.27
2022-11-29T16:52:33.703Z,7.93
2022-11-29T16:55:00.243Z,11.43
2022-11-29T16:57:28.027Z,6.78
2022-11-29T16:59:54.537Z,10.60
2022-11-29T17:02:21.408Z,11.27
2022-11-29T17:04:48.393Z,7.93
2022-11-29T17:07:24.058Z,9.55
2022-11-29T17:09:50.633Z,7.85
2022-11-29T17:12:21.546Z,10.15
2022-11-29T17:14:48.214Z,12.43
2022-11-29T17:17:17.689Z,12.05
2022-11-29T17:19:44.359Z,10.35
2022-11-29T17:22:12.076Z,8.90
2022-11-29T17:24:41.153Z,10.75
2022-11-29T17:27:11.267Z,12.60
2022-11-29T17:29:37.642Z,9.02
2022-11-29T17:32:04.295Z,9.77
2022-11-29T17:34:30.806Z,8.25
2022-11-29T17:37:00.112Z,13.30
2022-11-29T17:39:26.502Z,7.90
2022-11-29T17:41:52.911Z,8.15
2022-11-29T17:44:19.286Z,8.25
2022-11-29T17:46:45.718Z,9.50
2022-11-29T17:49:12.133Z,7.18
2022-11-29T17:51:55.922Z,8.03
2022-11-29T17:54:22.697Z,9.70
2022-11-29T17:56:49.414Z,9.23
2022-11-29T17:59:15.917Z,9.15
2022-11-29T18:01:42.401Z,8.05
2022-11-29T18:04:08.936Z,8.47
2022-11-29T18:06:40.071Z,7.70
2022-11-29T18:09:08.327Z,7.45
2022-11-29T18:11:46.893Z,7.45
2022-11-29T18:14:19.612Z,7.13
2022-11-29T18:16:46.509Z,7.03
2022-11-29T18:19:16.441Z,10.50
2022-11-29T18:21:43.290Z,6.93
2022-11-29T18:24:09.971Z,7.00
2022-11-29T18:26:37.781Z,7.55
2022-11-29T18:29:05.575Z,7.10
2022-11-29T18:31:34.696Z,6.53
2022-11-29T18:34:02.991Z,7.07
2022-11-29T18:36:32.730Z,6.90
2022-11-29T18:39:05.263Z,6.18
2022-11-29T18:41:32.162Z,6.87
2022-11-29T18:44:10.428Z,6.80
2022-11-29T18:46:39.358Z,6.60
2022-11-29T18:49:08.659Z,6.78
2022-11-29T18:51:37.119Z,5.95
2022-11-29T18:54:11.451Z,5.93
2022-11-29T18:56:38.498Z,7.88
2022-11-29T18:59:08.812Z,6.85
2022-11-29T19:01:37.846Z,5.88
2022-11-29T19:04:04.473Z,5.75
2022-11-29T19:06:39.381Z,5.70
2022-11-29T19:09:09.629Z,7.35
2022-11-29T19:11:36.063Z,6.13
2022-11-29T19:14:04.968Z,5.78
2022-11-29T19:16:36.174Z,5.63
2022-11-29T19:19:02.645Z,5.77
2022-11-29T19:21:34.596Z,6.25
2022-11-29T19:24:04.016Z,5.47
2022-11-29T19:26:32.042Z,4.95
2022-11-29T19:29:00.258Z,4.82
2022-11-29T19:31:28.271Z,5.27
2022-11-29T19:33:55.578Z,4.82
2022-11-29T19:36:27.558Z,5.65
2022-11-29T19:38:54.926Z,5.05
2022-11-29T19:41:25.178Z,4.75
2022-11-29T19:43:52.387Z,5.07
2022-11-29T19:46:24.703Z,5.18
2022-11-29T19:48:58.850Z,5.20
2022-11-29T19:51:26.938Z,4.90
2022-11-29T19:53:54.814Z,4.38
2022-11-29T19:56:21.878Z,6.10
2022-11-29T19:58:48.800Z,6.63
2022-11-29T20:01:22.374Z,4.80
2022-11-29T20:03:49.192Z,4.72
2022-11-29T20:06:16.241Z,4.18
2022-11-29T20:08:43.035Z,5.40
2022-11-29T20:11:09.945Z,4.45
2022-11-29T20:13:38.219Z,5.07
2022-11-29T20:16:08.937Z,4.75
2022-11-29T20:18:37.140Z,4.32
2022-11-29T20:21:12.211Z,4.10
2022-11-29T20:23:39.683Z,4.03
2022-11-29T20:26:13.890Z,5.55
2022-11-29T20:28:40.764Z,4.38
2022-11-29T20:31:09.038Z,4.05
2022-11-29T20:33:35.738Z,4.63
2022-11-29T20:36:30.391Z,4.97
2022-11-29T20:39:13.566Z,4.45
2022-11-29T20:42:18.677Z,4.00
2022-11-29T20:44:54.452Z,3.53
2022-11-29T20:47:24.924Z,4.47
2022-11-29T20:49:52.138Z,4.35
2022-11-29T20:52:45.133Z,4.88
2022-11-29T20:55:11.618Z,4.05
2022-11-29T20:57:38.439Z,6.93
2022-11-29T21:00:11.266Z,7.03
2022-11-29T21:02:38.148Z,3.80
2022-11-29T21:05:05.576Z,4.93
2022-11-29T21:07:32.034Z,3.88
2022-11-29T21:10:01.339Z,3.80
2022-11-29T21:12:29.756Z,4.33
2022-11-29T21:14:56.713Z,3.95
2022-11-29T21:17:26.461Z,3.33
2022-11-29T21:19:56.880Z,3.80
2022-11-29T21:22:45.053Z,3.53
2022-11-29T21:25:25.262Z,4.63
2022-11-29T21:27:52.698Z,3.40
2022-11-29T21:30:22.607Z,4.40
2022-11-29T21:32:49.530Z,4.63
2022-11-29T21:35:16.086Z,4.05
2022-11-29T21:37:43.586Z,3.60
2022-11-29T21:40:11.749Z,3.60
2022-11-29T21:42:38.195Z,4.45
2022-11-29T21:45:10.445Z,3.58
2022-11-29T21:47:41.137Z,3.28
2022-11-29T21:50:11.585Z,3.30
2022-11-29T21:52:37.991Z,3.40
2022-11-29T21:55:05.678Z,3.30
2022-11-29T21:57:32.081Z,3.08
2022-11-29T21:59:58.448Z,3.35
2022-11-29T22:02:24.916Z,3.23
2022-11-29T22:04:51.346Z,3.17
2022-11-29T22:07:17.925Z,3.90
2022-11-29T22:09:44.395Z,3.42
2022-11-29T22:12:32.394Z,2.90
2022-11-29T22:15:00.395Z,4.33
2022-11-29T22:17:26.830Z,3.25
2022-11-29T22:19:53.171Z,2.90
2022-11-29T22:22:19.686Z,3.50
2022-11-29T22:24:46.288Z,2.97
2022-11-29T22:27:12.993Z,3.73
2022-11-29T22:29:39.407Z,4.80
2022-11-29T22:32:06.198Z,3.28
2022-11-29T22:34:34.880Z,3.45
2022-11-29T22:37:03.755Z,3.40
2022-11-29T22:39:30.171Z,3.47
2022-11-29T22:41:58.871Z,3.38
2022-11-29T22:44:25.243Z,3.15
2022-11-29T22:46:51.733Z,3.30
2022-11-29T22:49:18.233Z,3.20
2022-11-29T22:51:44.676Z,3.10
2022-11-29T22:54:15.156Z,3.55
2022-11-29T22:56:43.158Z,3.05
2022-11-29T22:59:10.141Z,3.78
2022-11-29T23:01:39.202Z,3.47
2022-11-29T23:04:08.094Z,3.50
2022-11-29T23:06:42.862Z,3.67
2022-11-29T23:09:15.665Z,2.83
2022-11-29T23:11:43.909Z,3.88
2022-11-29T23:14:10.525Z,3.80
2022-11-29T23:16:37.133Z,3.67
2022-11-29T23:19:03.826Z,3.88
2022-11-29T23:21:32.963Z,3.67
2022-11-29T23:24:00.916Z,3.63
2022-11-29T23:26:40.248Z,3.55
2022-11-29T23:29:12.456Z,5.63
2022-11-29T23:31:39.502Z,3.63
2022-11-29T23:34:05.879Z,3.72
2022-11-29T23:36:33.164Z,3.30
2022-11-29T23:38:59.606Z,4.22
2022-11-29T23:41:26.518Z,3.73
2022-11-29T23:43:52.960Z,4.45
2022-11-29T23:46:21.669Z,3.35
2022-11-29T23:48:50.921Z,3.40
2022-11-29T23:51:18.817Z,3.67
2022-11-29T23:53:46.878Z,3.77
2022-11-29T23:56:15.687Z,4.00
2022-11-29T23:58:43.385Z,3.95
